sensor_id;sensor_type;location;lat;lon;timestamp;P1;durP1;ratioP1;P2;durP2;ratioP2
57319;SDS011;43158;51.026;18.190;2022-08-04T00:01:04;13.80;;;12.40;;
57319;SDS011;43158;51.026;18.190;2022-08-04T00:03:42;12.30;;;11.40;;
57319;SDS011;43158;51.026;18.190;2022-08-04T00:06:19;12.50;;;11.40;;
57319;SDS011;43158;51.026;18.190;2022-08-04T00:09:09;13.40;;;12.30;;
57319;SDS011;43158;51.026;18.190;2022-08-04T00:11:39;12.70;;;11.50;;
57319;SDS011;43158;51.026;18.190;2022-08-04T00:14:08;13.10;;;12.20;;
57319;SDS011;43158;51.026;18.190;2022-08-04T00:16:41;14.00;;;12.80;;
57319;SDS011;43158;51.026;18.190;2022-08-04T00:19:15;13.10;;;12.00;;
57319;SDS011;43158;51.026;18.190;2022-08-04T00:21:47;13.20;;;12.20;;
57319;SDS011;43158;51.026;18.190;2022-08-04T00:24:17;12.80;;;11.90;;
57319;SDS011;43158;51.026;18.190;2022-08-04T00:26:45;12.40;;;11.50;;
57319;SDS011;43158;51.026;18.190;2022-08-04T00:29:12;12.30;;;11.40;;
57319;SDS011;43158;51.026;18.190;2022-08-04T00:31:40;13.30;;;12.30;;
57319;SDS011;43158;51.026;18.190;2022-08-04T00:34:09;13.90;;;12.80;;
57319;SDS011;43158;51.026;18.190;2022-08-04T00:36:39;14.60;;;13.10;;
57319;SDS011;43158;51.026;18.190;2022-08-04T00:39:06;15.30;;;13.80;;
57319;SDS011;43158;51.026;18.190;2022-08-04T00:44:29;15.10;;;14.00;;
57319;SDS011;43158;51.026;18.190;2022-08-04T00:58:19;12.90;;;11.80;;
57319;SDS011;43158;51.026;18.190;2022-08-04T01:03:38;13.30;;;12.30;;
57319;SDS011;43158;51.026;18.190;2022-08-04T01:06:11;13.60;;;12.50;;
57319;SDS011;43158;51.026;18.190;2022-08-04T01:08:54;13.90;;;12.70;;
57319;SDS011;43158;51.026;18.190;2022-08-04T01:14:23;14.20;;;13.10;;
57319;SDS011;43158;51.026;18.190;2022-08-04T01:17:09;14.20;;;13.20;;
57319;SDS011;43158;51.026;18.190;2022-08-04T01:22:14;15.40;;;14.10;;
57319;SDS011;43158;51.026;18.190;2022-08-04T01:25:08;16.20;;;14.80;;
57319;SDS011;43158;51.026;18.190;2022-08-04T01:28:05;14.90;;;13.40;;
57319;SDS011;43158;51.026;18.190;2022-08-04T01:30:48;14.20;;;13.20;;
57319;SDS011;43158;51.026;18.190;2022-08-04T01:33:19;13.60;;;12.40;;
57319;SDS011;43158;51.026;18.190;2022-08-04T01:35:55;13.80;;;12.50;;
57319;SDS011;43158;51.026;18.190;2022-08-04T01:38:24;14.90;;;13.50;;
57319;SDS011;43158;51.026;18.190;2022-08-04T01:40:51;15.00;;;13.90;;
57319;SDS011;43158;51.026;18.190;2022-08-04T01:43:19;13.90;;;12.90;;
57319;SDS011;43158;51.026;18.190;2022-08-04T01:45:50;14.90;;;13.80;;
57319;SDS011;43158;51.026;18.190;2022-08-04T01:48:24;15.10;;;13.80;;
57319;SDS011;43158;51.026;18.190;2022-08-04T01:50:52;16.40;;;15.20;;
57319;SDS011;43158;51.026;18.190;2022-08-04T01:53:20;16.00;;;14.70;;
57319;SDS011;43158;51.026;18.190;2022-08-04T01:55:51;17.70;;;16.10;;
57319;SDS011;43158;51.026;18.190;2022-08-04T01:58:18;17.00;;;15.80;;
57319;SDS011;43158;51.026;18.190;2022-08-04T02:00:49;16.70;;;15.50;;
57319;SDS011;43158;51.026;18.190;2022-08-04T02:03:24;16.90;;;15.70;;
57319;SDS011;43158;51.026;18.190;2022-08-04T02:05:50;16.40;;;15.00;;
57319;SDS011;43158;51.026;18.190;2022-08-04T02:11:15;18.60;;;16.90;;
57319;SDS011;43158;51.026;18.190;2022-08-04T02:13:53;17.80;;;15.80;;
57319;SDS011;43158;51.026;18.190;2022-08-04T02:16:43;17.40;;;15.90;;
57319;SDS011;43158;51.026;18.190;2022-08-04T02:19:16;16.50;;;15.20;;
57319;SDS011;43158;51.026;18.190;2022-08-04T02:22:02;16.20;;;14.90;;
57319;SDS011;43158;51.026;18.190;2022-08-04T02:24:33;16.20;;;14.90;;
57319;SDS011;43158;51.026;18.190;2022-08-04T02:27:13;16.50;;;15.00;;
57319;SDS011;43158;51.026;18.190;2022-08-04T02:30:01;15.70;;;14.50;;
57319;SDS011;43158;51.026;18.190;2022-08-04T02:32:30;17.00;;;15.80;;
57319;SDS011;43158;51.026;18.190;2022-08-04T02:37:55;15.70;;;14.50;;
57319;SDS011;43158;51.026;18.190;2022-08-04T02:40:30;16.30;;;14.70;;
57319;SDS011;43158;51.026;18.190;2022-08-04T02:42:57;16.90;;;15.60;;
57319;SDS011;43158;51.026;18.190;2022-08-04T02:45:24;15.40;;;14.20;;
57319;SDS011;43158;51.026;18.190;2022-08-04T02:47:52;16.30;;;15.00;;
57319;SDS011;43158;51.026;18.190;2022-08-04T02:50:19;15.20;;;14.00;;
57319;SDS011;43158;51.026;18.190;2022-08-04T02:52:46;15.90;;;14.60;;
57319;SDS011;43158;51.026;18.190;2022-08-04T02:55:14;15.90;;;14.60;;
57319;SDS011;43158;51.026;18.190;2022-08-04T02:57:42;15.80;;;14.40;;
57319;SDS011;43158;51.026;18.190;2022-08-04T03:00:12;16.00;;;14.70;;
57319;SDS011;43158;51.026;18.190;2022-08-04T03:02:49;16.50;;;15.00;;
57319;SDS011;43158;51.026;18.190;2022-08-04T03:05:22;17.40;;;16.10;;
57319;SDS011;43158;51.026;18.190;2022-08-04T03:13:21;18.80;;;17.40;;
57319;SDS011;43158;51.026;18.190;2022-08-04T03:16:17;18.30;;;16.60;;
57319;SDS011;43158;51.026;18.190;2022-08-04T03:18:56;22.30;;;17.00;;
57319;SDS011;43158;51.026;18.190;2022-08-04T03:24:20;17.40;;;16.00;;
57319;SDS011;43158;51.026;18.190;2022-08-04T03:36:12;17.70;;;14.90;;
57319;SDS011;43158;51.026;18.190;2022-08-04T03:41:47;20.20;;;18.30;;
57319;SDS011;43158;51.026;18.190;2022-08-04T04:02:30;21.10;;;19.10;;
57319;SDS011;43158;51.026;18.190;2022-08-04T04:05:31;20.50;;;18.90;;
57319;SDS011;43158;51.026;18.190;2022-08-04T04:08:16;19.00;;;17.40;;
57319;SDS011;43158;51.026;18.190;2022-08-04T04:16:56;19.30;;;17.70;;
57319;SDS011;43158;51.026;18.190;2022-08-04T04:22:39;20.10;;;18.20;;
57319;SDS011;43158;51.026;18.190;2022-08-04T04:25:27;17.90;;;16.50;;
57319;SDS011;43158;51.026;18.190;2022-08-04T04:28:26;19.90;;;18.10;;
57319;SDS011;43158;51.026;18.190;2022-08-04T04:31:17;19.30;;;17.70;;
57319;SDS011;43158;51.026;18.190;2022-08-04T04:34:06;21.70;;;20.00;;
57319;SDS011;43158;51.026;18.190;2022-08-04T04:36:38;19.70;;;18.10;;
57319;SDS011;43158;51.026;18.190;2022-08-04T04:41:59;20.50;;;18.80;;
57319;SDS011;43158;51.026;18.190;2022-08-04T04:44:52;19.50;;;17.70;;
57319;SDS011;43158;51.026;18.190;2022-08-04T04:47:41;19.70;;;18.00;;
57319;SDS011;43158;51.026;18.190;2022-08-04T04:53:37;20.80;;;19.00;;
57319;SDS011;43158;51.026;18.190;2022-08-04T04:56:26;20.50;;;19.00;;
57319;SDS011;43158;51.026;18.190;2022-08-04T04:58:56;20.70;;;19.00;;
57319;SDS011;43158;51.026;18.190;2022-08-04T05:07:27;21.90;;;20.20;;
57319;SDS011;43158;51.026;18.190;2022-08-04T05:13:31;24.10;;;22.10;;
57319;SDS011;43158;51.026;18.190;2022-08-04T05:21:38;22.70;;;21.00;;
57319;SDS011;43158;51.026;18.190;2022-08-04T05:24:13;21.90;;;20.30;;
57319;SDS011;43158;51.026;18.190;2022-08-04T05:26:44;22.10;;;20.30;;
57319;SDS011;43158;51.026;18.190;2022-08-04T05:29:20;20.70;;;19.10;;
57319;SDS011;43158;51.026;18.190;2022-08-04T05:31:57;20.00;;;18.50;;
57319;SDS011;43158;51.026;18.190;2022-08-04T05:34:28;19.90;;;18.40;;
57319;SDS011;43158;51.026;18.190;2022-08-04T05:37:00;19.30;;;17.60;;
57319;SDS011;43158;51.026;18.190;2022-08-04T05:39:32;18.60;;;17.00;;
57319;SDS011;43158;51.026;18.190;2022-08-04T05:42:02;19.20;;;17.60;;
57319;SDS011;43158;51.026;18.190;2022-08-04T05:44:29;19.00;;;17.70;;
57319;SDS011;43158;51.026;18.190;2022-08-04T05:46:57;17.50;;;16.10;;
57319;SDS011;43158;51.026;18.190;2022-08-04T05:49:27;18.30;;;16.50;;
57319;SDS011;43158;51.026;18.190;2022-08-04T05:51:57;17.20;;;15.70;;
57319;SDS011;43158;51.026;18.190;2022-08-04T05:54:25;16.30;;;15.00;;
57319;SDS011;43158;51.026;18.190;2022-08-04T05:56:54;16.20;;;14.90;;
57319;SDS011;43158;51.026;18.190;2022-08-04T05:59:23;14.90;;;13.70;;
57319;SDS011;43158;51.026;18.190;2022-08-04T06:01:55;16.00;;;14.80;;
57319;SDS011;43158;51.026;18.190;2022-08-04T06:04:33;15.60;;;14.20;;
57319;SDS011;43158;51.026;18.190;2022-08-04T06:07:02;16.30;;;14.90;;
57319;SDS011;43158;51.026;18.190;2022-08-04T06:09:30;16.10;;;14.00;;
57319;SDS011;43158;51.026;18.190;2022-08-04T06:12:05;14.40;;;13.10;;
57319;SDS011;43158;51.026;18.190;2022-08-04T06:14:38;14.50;;;13.30;;
57319;SDS011;43158;51.026;18.190;2022-08-04T06:17:08;14.50;;;13.30;;
57319;SDS011;43158;51.026;18.190;2022-08-04T06:19:39;15.00;;;13.90;;
57319;SDS011;43158;51.026;18.190;2022-08-04T06:24:32;13.40;;;12.10;;
57319;SDS011;43158;51.026;18.190;2022-08-04T06:27:02;13.50;;;12.20;;
57319;SDS011;43158;51.026;18.190;2022-08-04T06:29:29;13.50;;;12.40;;
57319;SDS011;43158;51.026;18.190;2022-08-04T06:32:01;12.40;;;11.40;;
57319;SDS011;43158;51.026;18.190;2022-08-04T06:34:40;11.80;;;10.90;;
57319;SDS011;43158;51.026;18.190;2022-08-04T06:37:07;10.50;;;9.50;;
57319;SDS011;43158;51.026;18.190;2022-08-04T06:39:53;10.40;;;9.60;;
57319;SDS011;43158;51.026;18.190;2022-08-04T06:42:39;10.40;;;9.50;;
57319;SDS011;43158;51.026;18.190;2022-08-04T06:45:25;8.60;;;7.90;;
57319;SDS011;43158;51.026;18.190;2022-08-04T06:47:53;9.50;;;8.60;;
57319;SDS011;43158;51.026;18.190;2022-08-04T06:50:20;9.40;;;8.60;;
57319;SDS011;43158;51.026;18.190;2022-08-04T06:52:49;9.80;;;8.80;;
57319;SDS011;43158;51.026;18.190;2022-08-04T06:55:15;9.20;;;8.40;;
57319;SDS011;43158;51.026;18.190;2022-08-04T06:57:42;9.10;;;8.20;;
57319;SDS011;43158;51.026;18.190;2022-08-04T07:00:12;8.80;;;8.00;;
57319;SDS011;43158;51.026;18.190;2022-08-04T07:02:47;8.30;;;7.50;;
57319;SDS011;43158;51.026;18.190;2022-08-04T07:05:21;8.00;;;7.30;;
57319;SDS011;43158;51.026;18.190;2022-08-04T07:07:53;8.40;;;7.70;;
57319;SDS011;43158;51.026;18.190;2022-08-04T07:10:21;7.80;;;7.10;;
57319;SDS011;43158;51.026;18.190;2022-08-04T07:12:50;7.60;;;7.00;;
57319;SDS011;43158;51.026;18.190;2022-08-04T07:15:22;7.40;;;6.90;;
57319;SDS011;43158;51.026;18.190;2022-08-04T07:17:50;6.50;;;6.00;;
57319;SDS011;43158;51.026;18.190;2022-08-04T07:20:18;6.50;;;6.10;;
57319;SDS011;43158;51.026;18.190;2022-08-04T07:25:15;6.00;;;5.60;;
57319;SDS011;43158;51.026;18.190;2022-08-04T07:27:42;5.60;;;4.90;;
57319;SDS011;43158;51.026;18.190;2022-08-04T07:30:09;5.70;;;5.20;;
57319;SDS011;43158;51.026;18.190;2022-08-04T07:32:37;6.30;;;5.40;;
57319;SDS011;43158;51.026;18.190;2022-08-04T07:35:07;6.20;;;5.00;;
57319;SDS011;43158;51.026;18.190;2022-08-04T07:37:35;5.50;;;4.40;;
57319;SDS011;43158;51.026;18.190;2022-08-04T07:40:04;4.40;;;3.80;;
57319;SDS011;43158;51.026;18.190;2022-08-04T07:42:32;5.00;;;4.10;;
57319;SDS011;43158;51.026;18.190;2022-08-04T07:45:03;4.80;;;4.40;;
57319;SDS011;43158;51.026;18.190;2022-08-04T07:47:33;5.00;;;4.60;;
57319;SDS011;43158;51.026;18.190;2022-08-04T07:50:01;4.70;;;4.40;;
57319;SDS011;43158;51.026;18.190;2022-08-04T07:52:30;4.90;;;4.60;;
57319;SDS011;43158;51.026;18.190;2022-08-04T07:54:57;4.70;;;4.30;;
57319;SDS011;43158;51.026;18.190;2022-08-04T07:57:23;5.50;;;4.60;;
57319;SDS011;43158;51.026;18.190;2022-08-04T07:59:50;4.30;;;3.90;;
57319;SDS011;43158;51.026;18.190;2022-08-04T08:02:17;3.90;;;3.50;;
57319;SDS011;43158;51.026;18.190;2022-08-04T08:04:45;4.40;;;4.00;;
57319;SDS011;43158;51.026;18.190;2022-08-04T08:09:39;4.40;;;4.00;;
57319;SDS011;43158;51.026;18.190;2022-08-04T08:12:12;4.20;;;3.90;;
57319;SDS011;43158;51.026;18.190;2022-08-04T08:14:38;4.30;;;3.80;;
57319;SDS011;43158;51.026;18.190;2022-08-04T08:17:05;4.60;;;4.20;;
57319;SDS011;43158;51.026;18.190;2022-08-04T08:19:33;6.50;;;4.10;;
57319;SDS011;43158;51.026;18.190;2022-08-04T08:22:00;4.10;;;3.60;;
57319;SDS011;43158;51.026;18.190;2022-08-04T08:24:28;4.70;;;4.30;;
57319;SDS011;43158;51.026;18.190;2022-08-04T08:26:57;7.50;;;4.10;;
57319;SDS011;43158;51.026;18.190;2022-08-04T08:29:24;4.20;;;3.80;;
57319;SDS011;43158;51.026;18.190;2022-08-04T08:31:51;3.40;;;3.20;;
57319;SDS011;43158;51.026;18.190;2022-08-04T08:34:18;4.80;;;3.80;;
57319;SDS011;43158;51.026;18.190;2022-08-04T08:36:45;4.60;;;4.30;;
57319;SDS011;43158;51.026;18.190;2022-08-04T08:39:16;4.90;;;4.40;;
57319;SDS011;43158;51.026;18.190;2022-08-04T08:42:02;4.80;;;4.40;;
57319;SDS011;43158;51.026;18.190;2022-08-04T08:53:54;4.10;;;3.50;;
57319;SDS011;43158;51.026;18.190;2022-08-04T09:08:54;4.00;;;3.70;;
57319;SDS011;43158;51.026;18.190;2022-08-04T09:11:29;4.60;;;3.70;;
57319;SDS011;43158;51.026;18.190;2022-08-04T09:14:18;4.10;;;3.80;;
57319;SDS011;43158;51.026;18.190;2022-08-04T09:16:53;3.50;;;3.20;;
57319;SDS011;43158;51.026;18.190;2022-08-04T09:22:28;4.60;;;3.50;;
57319;SDS011;43158;51.026;18.190;2022-08-04T09:25:07;5.60;;;3.80;;
57319;SDS011;43158;51.026;18.190;2022-08-04T09:27:47;4.80;;;3.50;;
57319;SDS011;43158;51.026;18.190;2022-08-04T09:30:23;6.20;;;3.60;;
57319;SDS011;43158;51.026;18.190;2022-08-04T09:35:47;21.50;;;4.20;;
57319;SDS011;43158;51.026;18.190;2022-08-04T09:38:50;4.50;;;3.20;;
57319;SDS011;43158;51.026;18.190;2022-08-04T09:47:12;5.00;;;3.70;;
57319;SDS011;43158;51.026;18.190;2022-08-04T09:55:37;5.30;;;3.80;;
57319;SDS011;43158;51.026;18.190;2022-08-04T10:03:42;3.80;;;3.30;;
57319;SDS011;43158;51.026;18.190;2022-08-04T10:06:48;7.60;;;3.20;;
57319;SDS011;43158;51.026;18.190;2022-08-04T10:09:27;4.40;;;3.40;;
57319;SDS011;43158;51.026;18.190;2022-08-04T10:12:03;3.50;;;2.80;;
57319;SDS011;43158;51.026;18.190;2022-08-04T10:14:36;4.60;;;3.20;;
57319;SDS011;43158;51.026;18.190;2022-08-04T10:20:08;32.60;;;5.70;;
57319;SDS011;43158;51.026;18.190;2022-08-04T10:22:40;6.00;;;2.70;;
57319;SDS011;43158;51.026;18.190;2022-08-04T10:28:14;17.20;;;5.40;;
57319;SDS011;43158;51.026;18.190;2022-08-04T10:30:55;4.60;;;3.00;;
57319;SDS011;43158;51.026;18.190;2022-08-04T10:33:34;4.10;;;2.60;;
57319;SDS011;43158;51.026;18.190;2022-08-04T10:36:11;3.50;;;2.10;;
57319;SDS011;43158;51.026;18.190;2022-08-04T10:38:51;4.30;;;2.50;;
57319;SDS011;43158;51.026;18.190;2022-08-04T10:47:02;4.30;;;2.30;;
57319;SDS011;43158;51.026;18.190;2022-08-04T10:49:33;3.30;;;2.00;;
57319;SDS011;43158;51.026;18.190;2022-08-04T10:52:10;3.80;;;2.30;;
57319;SDS011;43158;51.026;18.190;2022-08-04T11:00:22;3.00;;;2.10;;
57319;SDS011;43158;51.026;18.190;2022-08-04T11:03:04;3.40;;;2.40;;
57319;SDS011;43158;51.026;18.190;2022-08-04T11:05:57;5.50;;;2.50;;
57319;SDS011;43158;51.026;18.190;2022-08-04T11:08:32;4.60;;;2.60;;
57319;SDS011;43158;51.026;18.190;2022-08-04T11:11:08;5.70;;;2.40;;
57319;SDS011;43158;51.026;18.190;2022-08-04T11:16:44;2.60;;;2.40;;
57319;SDS011;43158;51.026;18.190;2022-08-04T11:19:41;2.90;;;2.30;;
57319;SDS011;43158;51.026;18.190;2022-08-04T11:22:24;3.00;;;2.70;;
57319;SDS011;43158;51.026;18.190;2022-08-04T11:25:13;2.90;;;2.70;;
57319;SDS011;43158;51.026;18.190;2022-08-04T11:27:55;6.70;;;2.90;;
57319;SDS011;43158;51.026;18.190;2022-08-04T11:31:01;2.70;;;2.50;;
57319;SDS011;43158;51.026;18.190;2022-08-04T11:36:40;5.60;;;2.50;;
57319;SDS011;43158;51.026;18.190;2022-08-04T11:39:32;6.30;;;2.40;;
57319;SDS011;43158;51.026;18.190;2022-08-04T11:45:10;4.00;;;2.50;;
57319;SDS011;43158;51.026;18.190;2022-08-04T11:47:47;2.80;;;2.50;;
57319;SDS011;43158;51.026;18.190;2022-08-04T11:53:12;2.60;;;2.20;;
57319;SDS011;43158;51.026;18.190;2022-08-04T11:55:53;4.60;;;2.30;;
57319;SDS011;43158;51.026;18.190;2022-08-04T11:58:25;5.60;;;2.80;;
57319;SDS011;43158;51.026;18.190;2022-08-04T12:04:01;2.80;;;2.60;;
57319;SDS011;43158;51.026;18.190;2022-08-04T12:07:05;3.60;;;2.30;;
57319;SDS011;43158;51.026;18.190;2022-08-04T12:18:38;3.50;;;2.40;;
57319;SDS011;43158;51.026;18.190;2022-08-04T12:21:18;3.10;;;2.20;;
57319;SDS011;43158;51.026;18.190;2022-08-04T12:23:50;3.20;;;2.90;;
57319;SDS011;43158;51.026;18.190;2022-08-04T12:26:26;3.80;;;2.80;;
57319;SDS011;43158;51.026;18.190;2022-08-04T12:28:57;6.40;;;2.80;;
57319;SDS011;43158;51.026;18.190;2022-08-04T12:31:26;3.60;;;2.40;;
57319;SDS011;43158;51.026;18.190;2022-08-04T12:33:55;6.80;;;2.90;;
57319;SDS011;43158;51.026;18.190;2022-08-04T12:39:15;5.00;;;2.70;;
57319;SDS011;43158;51.026;18.190;2022-08-04T12:41:47;3.40;;;2.40;;
57319;SDS011;43158;51.026;18.190;2022-08-04T12:44:18;3.70;;;2.80;;
57319;SDS011;43158;51.026;18.190;2022-08-04T12:46:45;6.10;;;2.50;;
57319;SDS011;43158;51.026;18.190;2022-08-04T12:49:23;3.20;;;2.10;;
57319;SDS011;43158;51.026;18.190;2022-08-04T12:51:59;2.90;;;2.30;;
57319;SDS011;43158;51.026;18.190;2022-08-04T12:54:25;2.40;;;2.20;;
57319;SDS011;43158;51.026;18.190;2022-08-04T12:56:57;3.30;;;2.60;;
57319;SDS011;43158;51.026;18.190;2022-08-04T12:59:25;3.30;;;2.90;;
57319;SDS011;43158;51.026;18.190;2022-08-04T13:01:57;3.10;;;2.50;;
57319;SDS011;43158;51.026;18.190;2022-08-04T13:04:24;2.60;;;2.40;;
57319;SDS011;43158;51.026;18.190;2022-08-04T13:06:59;3.10;;;2.00;;
57319;SDS011;43158;51.026;18.190;2022-08-04T13:09:40;6.10;;;2.50;;
57319;SDS011;43158;51.026;18.190;2022-08-04T13:12:11;5.70;;;2.80;;
57319;SDS011;43158;51.026;18.190;2022-08-04T13:14:57;2.70;;;2.30;;
57319;SDS011;43158;51.026;18.190;2022-08-04T13:17:48;4.00;;;2.20;;
57319;SDS011;43158;51.026;18.190;2022-08-04T13:20:19;5.10;;;2.70;;
57319;SDS011;43158;51.026;18.190;2022-08-04T13:23:13;3.80;;;2.70;;
57319;SDS011;43158;51.026;18.190;2022-08-04T13:25:50;4.60;;;2.80;;
57319;SDS011;43158;51.026;18.190;2022-08-04T13:28:24;4.20;;;2.60;;
57319;SDS011;43158;51.026;18.190;2022-08-04T13:30:54;5.50;;;2.20;;
57319;SDS011;43158;51.026;18.190;2022-08-04T13:33:29;3.20;;;2.30;;
57319;SDS011;43158;51.026;18.190;2022-08-04T13:35:59;4.70;;;3.00;;
57319;SDS011;43158;51.026;18.190;2022-08-04T13:38:27;4.70;;;2.70;;
57319;SDS011;43158;51.026;18.190;2022-08-04T13:43:28;3.70;;;2.50;;
57319;SDS011;43158;51.026;18.190;2022-08-04T13:46:03;5.60;;;2.80;;
57319;SDS011;43158;51.026;18.190;2022-08-04T13:48:32;2.70;;;2.50;;
57319;SDS011;43158;51.026;18.190;2022-08-04T13:51:08;4.70;;;2.30;;
57319;SDS011;43158;51.026;18.190;2022-08-04T13:53:57;2.50;;;1.90;;
57319;SDS011;43158;51.026;18.190;2022-08-04T13:56:34;4.00;;;2.70;;
57319;SDS011;43158;51.026;18.190;2022-08-04T13:59:05;4.00;;;2.40;;
57319;SDS011;43158;51.026;18.190;2022-08-04T14:01:35;3.50;;;2.40;;
57319;SDS011;43158;51.026;18.190;2022-08-04T14:04:24;3.60;;;2.40;;
57319;SDS011;43158;51.026;18.190;2022-08-04T14:09:30;3.50;;;2.30;;
57319;SDS011;43158;51.026;18.190;2022-08-04T14:12:10;2.50;;;1.90;;
57319;SDS011;43158;51.026;18.190;2022-08-04T14:14:45;4.70;;;2.00;;
57319;SDS011;43158;51.026;18.190;2022-08-04T14:17:14;3.80;;;1.80;;
57319;SDS011;43158;51.026;18.190;2022-08-04T14:24:56;2.20;;;2.00;;
57319;SDS011;43158;51.026;18.190;2022-08-04T14:30:34;2.30;;;1.80;;
57319;SDS011;43158;51.026;18.190;2022-08-04T14:33:04;5.70;;;2.10;;
57319;SDS011;43158;51.026;18.190;2022-08-04T14:35:54;5.50;;;2.80;;
57319;SDS011;43158;51.026;18.190;2022-08-04T14:38:45;2.80;;;2.30;;
57319;SDS011;43158;51.026;18.190;2022-08-04T14:41:24;4.30;;;2.50;;
57319;SDS011;43158;51.026;18.190;2022-08-04T14:44:07;4.30;;;2.30;;
57319;SDS011;43158;51.026;18.190;2022-08-04T14:46:34;6.80;;;2.30;;
57319;SDS011;43158;51.026;18.190;2022-08-04T14:49:16;2.70;;;2.30;;
57319;SDS011;43158;51.026;18.190;2022-08-04T14:51:44;2.80;;;2.10;;
57319;SDS011;43158;51.026;18.190;2022-08-04T14:54:24;4.20;;;2.20;;
57319;SDS011;43158;51.026;18.190;2022-08-04T14:56:56;6.40;;;2.30;;
57319;SDS011;43158;51.026;18.190;2022-08-04T14:59:41;4.00;;;2.40;;
57319;SDS011;43158;51.026;18.190;2022-08-04T15:02:09;4.30;;;2.30;;
57319;SDS011;43158;51.026;18.190;2022-08-04T15:04:37;3.60;;;2.60;;
57319;SDS011;43158;51.026;18.190;2022-08-04T15:07:06;4.20;;;2.50;;
57319;SDS011;43158;51.026;18.190;2022-08-04T15:09:43;3.50;;;2.60;;
57319;SDS011;43158;51.026;18.190;2022-08-04T15:12:13;2.80;;;2.20;;
57319;SDS011;43158;51.026;18.190;2022-08-04T15:14:42;5.90;;;3.90;;
57319;SDS011;43158;51.026;18.190;2022-08-04T15:17:10;5.80;;;4.90;;
57319;SDS011;43158;51.026;18.190;2022-08-04T15:19:38;2.80;;;2.60;;
57319;SDS011;43158;51.026;18.190;2022-08-04T15:22:05;2.70;;;2.40;;
57319;SDS011;43158;51.026;18.190;2022-08-04T15:24:36;3.00;;;2.80;;
57319;SDS011;43158;51.026;18.190;2022-08-04T15:27:08;3.80;;;2.50;;
57319;SDS011;43158;51.026;18.190;2022-08-04T15:29:49;3.00;;;2.50;;
57319;SDS011;43158;51.026;18.190;2022-08-04T15:32:17;5.20;;;2.60;;
57319;SDS011;43158;51.026;18.190;2022-08-04T15:34:50;2.70;;;2.30;;
57319;SDS011;43158;51.026;18.190;2022-08-04T15:37:26;5.30;;;2.40;;
57319;SDS011;43158;51.026;18.190;2022-08-04T15:40:46;2.90;;;2.70;;
57319;SDS011;43158;51.026;18.190;2022-08-04T15:43:00;8.40;;;3.90;;
57319;SDS011;43158;51.026;18.190;2022-08-04T15:45:57;5.40;;;2.40;;
57319;SDS011;43158;51.026;18.190;2022-08-04T15:48:30;6.80;;;2.90;;
57319;SDS011;43158;51.026;18.190;2022-08-04T15:50:59;3.20;;;2.60;;
57319;SDS011;43158;51.026;18.190;2022-08-04T15:58:56;2.90;;;2.70;;
57319;SDS011;43158;51.026;18.190;2022-08-04T16:01:24;2.80;;;2.60;;
57319;SDS011;43158;51.026;18.190;2022-08-04T16:03:52;3.20;;;2.80;;
57319;SDS011;43158;51.026;18.190;2022-08-04T16:14:07;3.20;;;2.90;;
57319;SDS011;43158;51.026;18.190;2022-08-04T16:19:06;3.80;;;2.40;;
57319;SDS011;43158;51.026;18.190;2022-08-04T16:21:50;3.00;;;2.80;;
57319;SDS011;43158;51.026;18.190;2022-08-04T16:24:35;4.10;;;2.80;;
57319;SDS011;43158;51.026;18.190;2022-08-04T16:27:09;5.80;;;3.10;;
57319;SDS011;43158;51.026;18.190;2022-08-04T16:29:48;2.70;;;2.50;;
57319;SDS011;43158;51.026;18.190;2022-08-04T16:32:46;5.90;;;2.90;;
57319;SDS011;43158;51.026;18.190;2022-08-04T16:35:18;4.60;;;3.10;;
57319;SDS011;43158;51.026;18.190;2022-08-04T16:37:54;2.60;;;2.40;;
57319;SDS011;43158;51.026;18.190;2022-08-04T16:40:39;2.80;;;2.60;;
57319;SDS011;43158;51.026;18.190;2022-08-04T16:43:16;2.80;;;2.50;;
57319;SDS011;43158;51.026;18.190;2022-08-04T16:45:48;8.90;;;2.90;;
57319;SDS011;43158;51.026;18.190;2022-08-04T16:48:27;3.20;;;2.70;;
57319;SDS011;43158;51.026;18.190;2022-08-04T16:51:05;2.30;;;2.20;;
57319;SDS011;43158;51.026;18.190;2022-08-04T16:53:40;4.20;;;3.10;;
57319;SDS011;43158;51.026;18.190;2022-08-04T16:56:09;6.00;;;2.90;;
57319;SDS011;43158;51.026;18.190;2022-08-04T16:58:47;3.50;;;2.80;;
57319;SDS011;43158;51.026;18.190;2022-08-04T17:01:16;4.30;;;3.00;;
57319;SDS011;43158;51.026;18.190;2022-08-04T17:03:49;3.30;;;3.00;;
57319;SDS011;43158;51.026;18.190;2022-08-04T17:06:17;6.50;;;3.00;;
57319;SDS011;43158;51.026;18.190;2022-08-04T17:08:50;3.80;;;2.80;;
57319;SDS011;43158;51.026;18.190;2022-08-04T17:11:29;4.10;;;2.50;;
57319;SDS011;43158;51.026;18.190;2022-08-04T17:14:05;3.20;;;2.70;;
57319;SDS011;43158;51.026;18.190;2022-08-04T17:16:34;2.70;;;2.50;;
57319;SDS011;43158;51.026;18.190;2022-08-04T17:19:02;3.50;;;2.60;;
57319;SDS011;43158;51.026;18.190;2022-08-04T17:21:31;11.70;;;2.50;;
57319;SDS011;43158;51.026;18.190;2022-08-04T17:24:00;3.50;;;2.80;;
57319;SDS011;43158;51.026;18.190;2022-08-04T17:26:28;4.60;;;2.50;;
57319;SDS011;43158;51.026;18.190;2022-08-04T17:28:56;3.60;;;2.50;;
57319;SDS011;43158;51.026;18.190;2022-08-04T17:31:27;4.00;;;2.60;;
57319;SDS011;43158;51.026;18.190;2022-08-04T17:33:55;3.80;;;2.60;;
57319;SDS011;43158;51.026;18.190;2022-08-04T17:36:32;5.20;;;2.60;;
57319;SDS011;43158;51.026;18.190;2022-08-04T17:39:12;4.50;;;2.90;;
57319;SDS011;43158;51.026;18.190;2022-08-04T17:41:45;3.80;;;2.70;;
57319;SDS011;43158;51.026;18.190;2022-08-04T17:44:17;3.10;;;2.50;;
57319;SDS011;43158;51.026;18.190;2022-08-04T17:46:45;10.80;;;2.70;;
57319;SDS011;43158;51.026;18.190;2022-08-04T17:51:46;4.20;;;2.80;;
57319;SDS011;43158;51.026;18.190;2022-08-04T17:54:31;6.20;;;2.80;;
57319;SDS011;43158;51.026;18.190;2022-08-04T17:57:01;4.60;;;2.90;;
57319;SDS011;43158;51.026;18.190;2022-08-04T17:59:55;3.10;;;2.80;;
57319;SDS011;43158;51.026;18.190;2022-08-04T18:02:32;5.30;;;3.30;;
57319;SDS011;43158;51.026;18.190;2022-08-04T18:04:58;7.80;;;3.00;;
57319;SDS011;43158;51.026;18.190;2022-08-04T18:07:36;2.90;;;2.60;;
57319;SDS011;43158;51.026;18.190;2022-08-04T18:10:12;4.60;;;2.90;;
57319;SDS011;43158;51.026;18.190;2022-08-04T18:12:44;7.20;;;2.90;;
57319;SDS011;43158;51.026;18.190;2022-08-04T18:15:20;4.60;;;3.10;;
57319;SDS011;43158;51.026;18.190;2022-08-04T18:17:58;3.50;;;2.80;;
57319;SDS011;43158;51.026;18.190;2022-08-04T18:20:26;5.20;;;3.10;;
57319;SDS011;43158;51.026;18.190;2022-08-04T18:22:54;21.50;;;3.70;;
57319;SDS011;43158;51.026;18.190;2022-08-04T18:25:21;6.30;;;3.60;;
57319;SDS011;43158;51.026;18.190;2022-08-04T18:30:20;4.00;;;3.30;;
57319;SDS011;43158;51.026;18.190;2022-08-04T18:32:50;12.30;;;2.90;;
57319;SDS011;43158;51.026;18.190;2022-08-04T18:35:19;7.30;;;3.70;;
57319;SDS011;43158;51.026;18.190;2022-08-04T18:37:53;4.60;;;3.00;;
57319;SDS011;43158;51.026;18.190;2022-08-04T18:40:26;13.20;;;4.00;;
57319;SDS011;43158;51.026;18.190;2022-08-04T18:42:59;8.90;;;4.00;;
57319;SDS011;43158;51.026;18.190;2022-08-04T18:45:27;6.70;;;3.70;;
57319;SDS011;43158;51.026;18.190;2022-08-04T18:48:03;15.60;;;3.90;;
57319;SDS011;43158;51.026;18.190;2022-08-04T18:50:31;11.20;;;4.00;;
57319;SDS011;43158;51.026;18.190;2022-08-04T18:53:03;8.60;;;4.50;;
57319;SDS011;43158;51.026;18.190;2022-08-04T18:55:31;17.40;;;3.80;;